Time;durP1;ratioP1;P1;durP2;ratioP2;P2;SDS_P1;SDS_P2;PMS_P1;PMS_P2;Temp;Humidity;BMP_temperature;BMP_pressure;BME280_temperature;BME280_humidity;BME280_pressure;Samples;Min_cycle;Max_cycle;Signal;HPM_P1;HPM_P2
2021/01/21 00:00:48;;;;;;;5.73;2.30;;;;;;;1.42;98.90;99256.84;4992260;28;20034;-71
2021/01/21 00:03:15;;;;;;;3.13;2.00;;;;;;;1.33;99.72;99247.34;4984537;28;20080;-71
2021/01/21 00:05:41;;;;;;;4.60;2.43;;;;;;;1.32;100.00;99247.38;4969586;28;20159;-71
2021/01/21 00:08:07;;;;;;;2.83;2.10;;;;;;;1.28;99.95;99237.88;4987691;28;20463;-71
2021/01/21 00:10:33;;;;;;;4.23;2.57;;;;;;;1.23;100.00;99245.69;5001896;28;20075;-71
2021/01/21 00:13:00;;;;;;;4.30;2.90;;;;;;;1.28;100.00;99241.34;5003731;28;20228;-71
2021/01/21 00:15:26;;;;;;;3.60;2.63;;;;;;;1.26;100.00;99243.09;5003449;28;20431;-71
2021/01/21 00:17:52;;;;;;;3.90;2.63;;;;;;;1.19;100.00;99243.13;5003011;28;20034;-71
2021/01/21 00:20:19;;;;;;;4.57;2.50;;;;;;;1.21;100.00;99237.03;5003278;28;20038;-71
2021/01/21 00:22:45;;;;;;;4.90;2.53;;;;;;;1.23;100.00;99242.22;5000869;28;20045;-71
2021/01/21 00:25:14;;;;;;;4.57;2.73;;;;;;;1.36;100.00;99236.94;4986214;28;20476;-71
2021/01/21 00:27:40;;;;;;;4.20;2.40;;;;;;;1.32;99.56;99232.63;5000147;28;20794;-71
2021/01/21 00:30:09;;;;;;;4.27;2.40;;;;;;;1.31;100.00;99236.09;4987346;28;20054;-71
2021/01/21 00:32:36;;;;;;;3.57;2.37;;;;;;;1.23;99.58;99229.22;5003183;28;20133;-71
2021/01/21 00:35:03;;;;;;;3.17;2.13;;;;;;;1.18;100.00;99225.75;4988865;28;20045;-71
2021/01/21 00:37:29;;;;;;;4.60;2.90;;;;;;;1.16;100.00;99222.31;4970372;28;20052;-71
2021/01/21 00:39:56;;;;;;;4.50;2.53;;;;;;;1.16;100.00;99220.56;5002045;28;20045;-71
2021/01/21 00:42:22;;;;;;;4.20;2.47;;;;;;;1.12;100.00;99217.13;5005225;28;20041;-71
2021/01/21 00:44:48;;;;;;;3.43;2.07;;;;;;;1.06;100.00;99203.28;4998854;28;20045;-71
2021/01/21 00:47:15;;;;;;;3.60;2.30;;;;;;;0.98;100.00;99208.53;5003731;28;20602;-71
2021/01/21 00:49:41;;;;;;;3.30;2.07;;;;;;;0.90;100.00;99206.84;4985174;28;20051;-71
2021/01/21 00:52:07;;;;;;;3.97;2.10;;;;;;;0.80;100.00;99204.28;5000335;28;20531;-70
2021/01/21 00:54:34;;;;;;;3.43;2.53;;;;;;;0.74;100.00;99203.44;5004420;28;20133;-71
2021/01/21 00:57:00;;;;;;;3.97;2.30;;;;;;;0.66;100.00;99200.03;5003227;28;20045;-71
2021/01/21 00:59:27;;;;;;;3.87;2.27;;;;;;;0.60;100.00;99198.34;5002666;28;20460;-71
2021/01/21 01:01:53;;;;;;;5.40;2.83;;;;;;;0.52;100.00;99193.16;5006117;28;20042;-71
2021/01/21 01:04:19;;;;;;;3.43;2.40;;;;;;;0.51;100.00;99196.63;4984028;28;20060;-71
2021/01/21 01:06:46;;;;;;;3.30;2.23;;;;;;;0.45;100.00;99191.44;5006814;28;20033;-71
2021/01/21 01:09:12;;;;;;;3.90;2.33;;;;;;;0.35;100.00;99189.75;5007451;28;20204;-70
2021/01/21 01:11:38;;;;;;;3.10;2.20;;;;;;;0.27;100.00;99179.38;5007195;28;20038;-71
2021/01/21 01:14:04;;;;;;;3.47;2.20;;;;;;;0.18;100.00;99184.59;5003352;28;20101;-71
2021/01/21 01:16:30;;;;;;;3.80;2.73;;;;;;;0.13;100.00;99177.69;5008510;28;20755;-71
2021/01/21 01:18:56;;;;;;;4.33;2.50;;;;;;;0.04;100.00;99178.56;5006582;28;20157;-71
2021/01/21 01:21:22;;;;;;;3.93;2.50;;;;;;;0.02;100.00;99171.66;5006292;28;20092;-70
2021/01/21 01:23:48;;;;;;;4.47;2.50;;;;;;;-0.01;100.00;99175.97;5007909;28;20042;-70
2021/01/21 01:26:15;;;;;;;3.97;2.57;;;;;;;-0.02;100.00;99174.25;4989730;28;20056;-71
2021/01/21 01:28:43;;;;;;;4.30;2.37;;;;;;;0.03;100.00;99175.97;5002571;28;20577;-71
2021/01/21 01:31:09;;;;;;;3.43;2.20;;;;;;;0.03;100.00;99173.38;5008358;28;20046;-71
2021/01/21 01:33:35;;;;;;;3.83;1.90;;;;;;;0.06;100.00;99178.56;5007038;28;20034;-71
2021/01/21 01:36:03;;;;;;;3.17;2.20;;;;;;;0.07;100.00;99172.50;5004782;28;20049;-71
2021/01/21 01:38:29;;;;;;;2.97;2.07;;;;;;;0.07;100.00;99167.31;4992595;28;20049;-71
2021/01/21 01:40:55;;;;;;;3.40;2.13;;;;;;;0.10;100.00;99162.13;5006897;28;20034;-71
2021/01/21 01:43:21;;;;;;;4.43;2.57;;;;;;;0.11;100.00;99161.25;5007285;28;20100;-70
2021/01/21 01:45:48;;;;;;;3.33;2.37;;;;;;;0.18;100.00;99157.78;5007480;28;20096;-71
2021/01/21 01:48:16;;;;;;;3.90;2.30;;;;;;;0.19;100.00;99154.31;5004829;28;20449;-71
2021/01/21 01:50:42;;;;;;;3.60;2.30;;;;;;;0.15;100.00;99150.84;4988079;28;20050;-72
2021/01/21 01:53:09;;;;;;;5.10;2.67;;;;;;;0.17;100.00;99145.63;4991663;28;20042;-72
2021/01/21 01:55:35;;;;;;;2.50;2.13;;;;;;;0.21;100.00;99142.16;4971346;28;20468;-72
2021/01/21 01:58:01;;;;;;;3.60;2.47;;;;;;;0.43;100.00;99138.63;4991252;28;20434;-72
2021/01/21 02:00:27;;;;;;;6.90;2.57;;;;;;;0.75;100.00;99140.19;4988389;28;20069;-71
2021/01/21 02:02:54;;;;;;;2.30;1.70;;;;;;;0.97;100.00;99133.16;5009084;28;20225;-74
2021/01/21 02:05:20;;;;;;;3.47;2.40;;;;;;;1.21;100.00;99129.50;5009370;28;20077;-71
2021/01/21 02:07:47;;;;;;;3.13;2.30;;;;;;;1.40;100.00;99133.69;4971592;28;20070;-71
2021/01/21 02:10:18;;;;;;;2.97;2.23;;;;;;;1.61;98.67;99125.72;5008959;28;20042;-71
2021/01/21 02:13:00;;;;;;;3.87;1.93;;;;;;;1.76;97.14;99119.47;4982594;28;20043;-71
2021/01/21 02:16:04;;;;;;;3.10;2.00;;;;;;;1.95;95.20;99118.44;4992210;28;20108;-71
2021/01/21 02:18:36;;;;;;;4.60;2.17;;;;;;;2.08;93.96;99123.50;4983378;28;20107;-71
2021/01/21 02:21:31;;;;;;;3.53;1.90;;;;;;;2.20;92.47;99120.78;4992159;28;20053;-71
2021/01/21 02:24:20;;;;;;;3.50;1.90;;;;;;;2.25;92.06;99106.78;4966885;28;20610;-71
2021/01/21 02:26:50;;;;;;;5.30;1.90;;;;;;;2.39;90.84;99114.47;5007494;28;20041;-71
2021/01/21 02:29:39;;;;;;;3.30;2.03;;;;;;;2.49;89.78;99100.44;4991251;28;20844;-71
2021/01/21 02:32:09;;;;;;;3.43;1.97;;;;;;;2.71;88.22;99100.16;4989837;28;20434;-71
2021/01/21 02:34:47;;;;;;;5.00;2.77;;;;;;;2.86;86.99;99097.34;4990962;28;20108;-71
2021/01/21 02:37:23;;;;;;;3.47;2.00;;;;;;;3.08;85.11;99090.03;4990329;28;20124;-71
2021/01/21 02:39:54;;;;;;;5.07;2.10;;;;;;;3.31;82.97;99085.31;4991324;28;20046;-71
2021/01/21 02:42:20;;;;;;;2.90;1.80;;;;;;;3.42;81.99;99089.50;4990015;28;20042;-71
2021/01/21 02:44:47;;;;;;;3.13;2.00;;;;;;;3.46;81.61;99086.81;5007764;28;20050;-71
2021/01/21 02:47:15;;;;;;;4.17;1.83;;;;;;;3.49;80.39;99086.75;5009126;28;20613;-71
2021/01/21 02:49:42;;;;;;;2.67;1.63;;;;;;;3.55;80.55;99078.81;4988596;28;20046;-71
2021/01/21 02:52:21;;;;;;;2.90;1.67;;;;;;;3.66;78.83;99081.25;4991080;28;20100;-72
2021/01/21 02:55:18;;;;;;;2.47;1.80;;;;;;;3.88;77.08;99077.34;4989582;28;20037;-71
2021/01/21 02:58:16;;;;;;;2.93;1.70;;;;;;;3.87;76.44;99075.63;5006687;28;20053;-71
2021/01/21 03:00:44;;;;;;;3.53;1.70;;;;;;;3.92;75.85;99078.16;4973895;28;20614;-71
2021/01/21 03:03:13;;;;;;;2.00;1.60;;;;;;;3.85;76.85;99080.00;4988126;28;20065;-71
2021/01/21 03:05:39;;;;;;;3.13;1.93;;;;;;;3.84;75.76;99061.75;4990580;28;20038;-71
2021/01/21 03:08:06;;;;;;;3.23;1.70;;;;;;;3.79;76.19;99063.63;4985662;28;20073;-72
2021/01/21 03:10:32;;;;;;;2.13;1.60;;;;;;;3.81;75.80;99057.47;5008076;28;20038;-71
2021/01/21 03:13:00;;;;;;;2.57;1.47;;;;;;;3.82;75.43;99061.78;5008063;28;20038;-71
2021/01/21 03:15:26;;;;;;;2.83;1.60;;;;;;;3.85;75.11;99060.88;4990943;28;20034;-71
2021/01/21 03:17:53;;;;;;;2.27;1.90;;;;;;;3.84;75.03;99051.31;4990729;28;20186;-71
2021/01/21 03:20:19;;;;;;;3.87;1.60;;;;;;;3.86;74.91;99055.59;5007433;28;20046;-71
2021/01/21 03:22:46;;;;;;;2.60;1.50;;;;;;;3.84;74.64;99054.78;4986974;28;20679;-71
2021/01/21 03:25:12;;;;;;;2.73;1.50;;;;;;;3.92;74.31;99039.81;4989623;28;20053;-71
2021/01/21 03:27:38;;;;;;;2.90;1.70;;;;;;;3.95;73.43;99038.88;5008073;28;20049;-71
2021/01/21 03:30:05;;;;;;;3.13;2.00;;;;;;;3.95;74.09;99036.28;5006922;28;20086;-71
2021/01/21 03:32:32;;;;;;;3.33;1.77;;;;;;;3.92;73.73;99029.38;4991219;28;20038;-71
2021/01/21 03:35:00;;;;;;;2.83;1.80;;;;;;;3.97;74.52;99021.44;5008577;28;20048;-71
2021/01/21 03:37:26;;;;;;;3.10;1.87;;;;;;;3.94;73.87;99024.09;4996075;28;20236;-71
2021/01/21 03:39:52;;;;;;;2.63;1.70;;;;;;;3.88;74.30;99027.72;5007325;28;20077;-71
2021/01/21 03:42:18;;;;;;;3.50;1.50;;;;;;;4.21;72.10;99034.03;4995012;28;20041;-71
2021/01/21 03:44:44;;;;;;;2.70;2.00;;;;;;;4.38;71.96;99025.81;4987695;28;20042;-71
2021/01/21 03:47:10;;;;;;;2.97;1.70;;;;;;;4.31;71.68;99019.00;5005959;28;20096;-71
2021/01/21 03:49:37;;;;;;;2.83;1.73;;;;;;;4.31;71.71;99018.13;5006746;28;20045;-71
2021/01/21 03:52:03;;;;;;;2.47;1.67;;;;;;;4.23;72.14;99013.94;5000222;28;20038;-71
2021/01/21 03:54:29;;;;;;;1.73;1.43;;;;;;;4.15;72.51;99021.06;5007500;28;20073;-71
2021/01/21 03:56:55;;;;;;;3.40;2.30;;;;;;;4.16;72.53;99012.34;5008513;28;20042;-71
2021/01/21 03:59:21;;;;;;;2.30;1.80;;;;;;;4.04;72.84;99010.00;5007193;28;20048;-71
2021/01/21 04:01:48;;;;;;;2.60;1.93;;;;;;;4.05;72.51;99013.47;5000468;28;20053;-71
2021/01/21 04:04:14;;;;;;;2.60;1.63;;;;;;;3.99;72.95;99005.75;5008560;28;20045;-71
2021/01/21 04:06:40;;;;;;;2.97;1.60;;;;;;;3.92;72.67;99002.38;5007582;28;20672;-71
2021/01/21 04:09:06;;;;;;;2.97;1.40;;;;;;;3.93;72.71;99010.19;5006835;28;20084;-71
2021/01/21 04:11:32;;;;;;;3.37;1.40;;;;;;;3.88;73.00;99000.75;5007341;28;20104;-71
2021/01/21 04:13:59;;;;;;;2.10;1.70;;;;;;;3.83;73.72;98998.19;4991038;28;20491;-71
2021/01/21 04:16:25;;;;;;;2.97;1.40;;;;;;;3.69;74.19;98992.38;4990121;28;20046;-72
2021/01/21 04:18:51;;;;;;;2.40;1.60;;;;;;;3.63;73.64;98982.06;5007273;28;20425;-71
2021/01/21 04:21:17;;;;;;;2.13;1.80;;;;;;;3.59;74.45;98983.00;5006695;28;20041;-71
2021/01/21 04:23:44;;;;;;;3.50;1.90;;;;;;;3.56;74.52;98981.31;5006440;28;20045;-71
2021/01/21 04:26:10;;;;;;;3.40;1.67;;;;;;;3.54;74.32;98969.19;5007217;28;20052;-71
2021/01/21 04:28:36;;;;;;;2.47;1.50;;;;;;;3.63;74.12;98975.09;5005735;28;20100;-71
2021/01/21 04:31:02;;;;;;;3.20;1.80;;;;;;;3.71;72.97;98963.66;5007476;28;20376;-71
2021/01/21 04:33:28;;;;;;;2.63;1.40;;;;;;;3.68;73.82;98967.16;5007239;28;20041;-71
2021/01/21 04:35:54;;;;;;;1.80;1.37;;;;;;;3.72;74.00;98958.38;5006649;28;20042;-71
2021/01/21 04:38:20;;;;;;;2.23;1.50;;;;;;;3.70;73.32;98954.94;5006326;28;20060;-71
2021/01/21 04:40:47;;;;;;;3.43;1.50;;;;;;;3.75;73.04;98937.41;5007051;28;20100;-71
2021/01/21 04:43:13;;;;;;;4.27;1.47;;;;;;;3.77;73.53;98940.00;4971414;28;20039;-71
2021/01/21 04:45:39;;;;;;;2.53;1.60;;;;;;;3.76;73.65;98933.91;5007011;28;20100;-71
2021/01/21 04:48:06;;;;;;;3.27;1.73;;;;;;;3.72;73.98;98928.81;5006889;28;20543;-71
2021/01/21 04:50:33;;;;;;;1.70;1.40;;;;;;;3.73;73.61;98922.69;4989201;28;20128;-71
2021/01/21 04:53:02;;;;;;;3.17;1.70;;;;;;;3.79;73.31;98922.56;4989821;28;20045;-71
2021/01/21 04:55:33;;;;;;;2.03;1.40;;;;;;;3.84;73.04;98918.94;4989152;28;20392;-71
2021/01/21 04:58:02;;;;;;;2.40;1.50;;;;;;;3.78;73.08;98915.59;5005299;28;20066;-71
2021/01/21 05:00:30;;;;;;;2.00;1.40;;;;;;;3.84;72.91;98913.72;4986677;28;20100;-71
2021/01/21 05:02:56;;;;;;;2.43;1.57;;;;;;;3.78;73.28;98912.97;4985844;28;20116;-71
2021/01/21 05:05:22;;;;;;;2.17;1.40;;;;;;;3.85;72.52;98907.59;4986421;28;20046;-71
2021/01/21 05:07:49;;;;;;;1.93;1.40;;;;;;;3.79;72.92;98912.13;4986501;28;20538;-71
2021/01/21 05:10:16;;;;;;;2.97;1.63;;;;;;;3.91;72.04;98919.69;4986619;28;20045;-71
2021/01/21 05:12:42;;;;;;;2.37;1.40;;;;;;;3.99;72.27;98915.16;5004230;28;20088;-71
2021/01/21 05:15:08;;;;;;;3.10;1.63;;;;;;;4.11;71.49;98909.63;5006094;28;20111;-71
2021/01/21 05:17:36;;;;;;;2.60;1.40;;;;;;;4.20;71.22;98905.94;4988227;28;20092;-71
2021/01/21 05:20:03;;;;;;;2.00;1.40;;;;;;;4.15;71.61;98900.00;4987984;28;20499;-71
2021/01/21 05:22:29;;;;;;;5.50;1.53;;;;;;;4.07;71.54;98907.13;4988853;28;20061;-71
2021/01/21 05:24:55;;;;;;;2.43;1.40;;;;;;;4.10;71.86;98901.84;5006319;28;20430;-71
2021/01/21 05:27:22;;;;;;;2.80;1.50;;;;;;;4.15;71.85;98903.47;4989270;28;20220;-71
2021/01/21 05:29:49;;;;;;;2.63;1.67;;;;;;;4.08;72.39;98908.84;4987442;28;20061;-71
2021/01/21 05:32:19;;;;;;;2.20;1.40;;;;;;;4.15;71.37;98900.84;4988387;28;20050;-70
2021/01/21 05:34:46;;;;;;;1.77;1.10;;;;;;;4.19;70.84;98896.41;5005620;28;20437;-70
2021/01/21 05:37:15;;;;;;;2.17;1.50;;;;;;;4.19;71.62;98901.63;4989013;28;20046;-70
2021/01/21 05:39:43;;;;;;;2.70;1.30;;;;;;;4.21;70.90;98898.09;4988191;28;20438;-70
2021/01/21 05:42:10;;;;;;;2.70;1.70;;;;;;;4.25;70.79;98898.88;5005533;28;20062;-70
2021/01/21 05:44:37;;;;;;;2.23;1.43;;;;;;;4.29;71.18;98897.03;4988149;28;20073;-70
2021/01/21 05:47:04;;;;;;;2.13;1.33;;;;;;;4.19;71.52;98899.88;5005318;28;20034;-70
2021/01/21 05:49:31;;;;;;;1.97;1.70;;;;;;;4.16;72.02;98899.09;4987822;28;20042;-70
2021/01/21 05:51:58;;;;;;;2.40;1.67;;;;;;;4.17;71.75;98899.06;5004890;28;20042;-70
2021/01/21 05:54:27;;;;;;;3.10;1.77;;;;;;;4.26;70.72;98897.97;4976925;28;20631;-70
2021/01/21 05:56:54;;;;;;;3.67;1.50;;;;;;;4.27;71.23;98899.69;4990517;28;20042;-71
2021/01/21 05:59:23;;;;;;;2.27;1.40;;;;;;;4.34;70.82;98900.41;4990580;28;20120;-70
2021/01/21 06:01:49;;;;;;;2.03;1.37;;;;;;;4.31;70.69;98900.50;4991828;28;20088;-70
2021/01/21 06:04:17;;;;;;;2.30;1.30;;;;;;;4.26;71.43;98892.75;4989485;28;20065;-70
2021/01/21 06:06:43;;;;;;;3.97;1.57;;;;;;;4.22;71.43;98891.13;5010128;28;20519;-70
2021/01/21 06:09:15;;;;;;;3.67;1.70;;;;;;;4.17;71.85;98887.75;5008699;28;20056;-70
2021/01/21 06:11:43;;;;;;;1.97;1.57;;;;;;;4.24;71.63;98871.88;4993291;28;20053;-70
2021/01/21 06:14:12;;;;;;;3.27;1.57;;;;;;;4.27;71.52;98884.00;4989515;28;20542;-70
2021/01/21 06:16:38;;;;;;;3.27;1.70;;;;;;;4.42;70.38;98891.50;5006354;28;20096;-70
2021/01/21 06:19:05;;;;;;;3.50;2.00;;;;;;;4.40;70.93;98877.59;4989523;28;20100;-70
2021/01/21 06:21:33;;;;;;;2.30;1.50;;;;;;;4.32;70.68;98863.88;5007719;28;20069;-70
2021/01/21 06:24:02;;;;;;;2.53;2.07;;;;;;;4.30;71.41;98868.28;4990598;28;20041;-70
2021/01/21 06:26:34;;;;;;;2.87;1.80;;;;;;;4.40;71.04;98855.84;4989964;28;20045;-70
2021/01/21 06:29:00;;;;;;;3.07;1.80;;;;;;;4.43;70.91;98853.13;4990882;28;20030;-70
2021/01/21 06:31:29;;;;;;;3.97;2.07;;;;;;;4.37;70.97;98867.25;4990549;28;20041;-70
2021/01/21 06:33:55;;;;;;;3.33;2.07;;;;;;;4.41;70.83;98863.63;4989626;28;20034;-70
2021/01/21 06:36:23;;;;;;;3.43;2.20;;;;;;;4.45;70.36;98865.25;5006936;28;20160;-70
2021/01/21 06:38:55;;;;;;;3.60;2.57;;;;;;;4.46;70.85;98879.22;4995689;28;20510;-70
2021/01/21 06:41:23;;;;;;;3.30;2.00;;;;;;;4.69;68.71;98861.19;4990650;28;20049;-70
2021/01/21 06:43:49;;;;;;;6.00;2.10;;;;;;;4.74;68.43;98871.53;4991479;28;20041;-70
2021/01/21 06:46:16;;;;;;;3.67;1.80;;;;;;;4.73;69.35;98857.59;5008668;28;20142;-70
2021/01/21 06:48:47;;;;;;;3.47;2.53;;;;;;;4.70;69.07;98855.06;4991440;28;20034;-70
2021/01/21 06:51:13;;;;;;;3.90;2.77;;;;;;;4.67;69.25;98859.50;4989048;28;20073;-70
2021/01/21 06:53:44;;;;;;;4.43;2.60;;;;;;;4.73;69.08;98848.91;5008507;28;20108;-70
2021/01/21 06:56:10;;;;;;;3.50;2.10;;;;;;;4.78;68.31;98854.84;4987007;28;20045;-70
2021/01/21 06:58:47;;;;;;;5.20;2.47;;;;;;;4.90;67.87;98843.22;4991386;28;20114;-70
2021/01/21 07:01:32;;;;;;;3.97;2.03;;;;;;;4.89;67.36;98837.13;5008371;28;20042;-70
2021/01/21 07:04:18;;;;;;;2.97;2.17;;;;;;;4.95;67.70;98830.88;5006288;28;20042;-70
2021/01/21 07:07:03;;;;;;;4.60;2.50;;;;;;;4.95;67.64;98830.88;5009133;28;20104;-70
2021/01/21 07:09:31;;;;;;;3.30;2.07;;;;;;;4.96;67.16;98833.47;5004953;28;20034;-70
2021/01/21 07:12:00;;;;;;;3.90;2.50;;;;;;;5.17;65.96;98831.16;4991464;28;20126;-70
2021/01/21 07:14:29;;;;;;;3.40;2.30;;;;;;;5.23;65.91;98825.75;4974130;28;20050;-70
2021/01/21 07:16:56;;;;;;;4.30;2.40;;;;;;;5.26;66.08;98823.03;5009244;28;20645;-70
2021/01/21 07:19:44;;;;;;;3.43;2.20;;;;;;;5.19;66.01;98811.00;4973247;28;20038;-70
2021/01/21 07:22:20;;;;;;;4.33;2.07;;;;;;;5.16;66.22;98814.59;4989766;28;20041;-71
2021/01/21 07:25:07;;;;;;;3.47;2.37;;;;;;;5.10;66.54;98814.75;5008489;28;20041;-71
2021/01/21 07:27:34;;;;;;;6.23;2.57;;;;;;;5.21;66.08;98797.00;5017343;28;20116;-70
2021/01/21 07:30:23;;;;;;;5.60;2.63;;;;;;;5.44;65.30;98791.06;4979546;28;20061;-71
2021/01/21 07:33:19;;;;;;;4.23;2.80;;;;;;;5.41;65.45;98783.31;5004193;28;20070;-71
2021/01/21 07:35:45;;;;;;;3.67;2.20;;;;;;;5.45;65.46;98784.94;4986956;28;20080;-71
2021/01/21 07:38:11;;;;;;;4.03;2.50;;;;;;;5.43;65.28;98794.59;4989874;28;20065;-71
2021/01/21 07:40:48;;;;;;;5.87;2.40;;;;;;;5.41;65.70;98790.31;4996470;28;20045;-71
2021/01/21 07:43:14;;;;;;;5.07;2.97;;;;;;;5.48;64.95;98784.00;5007153;28;20495;-70
2021/01/21 07:46:26;;;;;;;3.78;2.20;;;;;;;5.45;65.78;98784.94;5004572;28;20041;-71
2021/01/21 07:49:22;;;;;;;4.90;3.10;;;;;;;5.46;65.57;98796.25;4989948;28;20034;-71
2021/01/21 07:52:02;;;;;;;3.63;2.07;;;;;;;5.40;65.55;98788.59;4981317;28;20093;-70
2021/01/21 07:54:29;;;;;;;4.50;2.50;;;;;;;5.44;65.70;98795.44;4991459;28;20649;-71
2021/01/21 07:56:56;;;;;;;4.53;2.70;;;;;;;5.54;64.90;98796.88;4974388;28;20046;-70
2021/01/21 07:59:22;;;;;;;3.83;2.50;;;;;;;5.56;64.94;98782.00;4994176;28;20622;-71
2021/01/21 08:01:58;;;;;;;4.23;2.10;;;;;;;5.52;65.76;98783.00;4993044;28;20053;-71
2021/01/21 08:04:26;;;;;;;4.40;2.30;;;;;;;5.53;65.41;98782.94;4990423;28;20075;-71
2021/01/21 08:06:59;;;;;;;4.33;2.27;;;;;;;5.63;64.81;98763.44;5003261;28;20057;-71
2021/01/21 08:09:25;;;;;;;3.97;2.90;;;;;;;5.76;64.81;98761.28;4999664;28;20431;-72
2021/01/21 08:11:52;;;;;;;3.80;2.27;;;;;;;5.81;64.59;98750.66;5004509;28;20041;-71
2021/01/21 08:14:18;;;;;;;4.47;2.73;;;;;;;5.89;64.04;98774.88;4995280;28;20240;-71
2021/01/21 08:16:45;;;;;;;4.87;2.50;;;;;;;5.99;64.39;98757.13;4996727;28;20042;-71
2021/01/21 08:19:13;;;;;;;3.73;2.30;;;;;;;6.03;64.48;98766.59;5007275;28;20034;-70
2021/01/21 08:21:39;;;;;;;3.53;2.27;;;;;;;6.12;63.46;98766.28;5009956;28;20626;-70
2021/01/21 08:24:09;;;;;;;3.43;2.30;;;;;;;6.28;62.85;98777.13;4983509;28;20038;-70
2021/01/21 08:26:42;;;;;;;3.53;2.13;;;;;;;6.35;63.04;98776.00;5008851;28;20073;-73
2021/01/21 08:29:12;;;;;;;3.53;2.45;;;;;;;6.45;62.61;98773.03;4995264;28;20109;-69
2021/01/21 08:31:44;;;;;;;4.07;2.37;;;;;;;6.63;62.18;98768.91;4980935;28;20065;-72
2021/01/21 08:34:21;;;;;;;3.20;2.37;;;;;;;6.80;61.89;98764.84;4988658;28;20107;-70
2021/01/21 08:36:50;;;;;;;3.73;2.20;;;;;;;6.88;61.92;98765.41;5001718;28;20037;-71
2021/01/21 08:39:16;;;;;;;3.73;2.30;;;;;;;6.97;61.20;98772.97;4980475;28;20095;-71
2021/01/21 08:41:44;;;;;;;4.50;2.03;;;;;;;7.08;60.80;98773.47;5000666;28;20042;-71
2021/01/21 08:44:17;;;;;;;4.13;1.90;;;;;;;7.20;60.36;98773.00;4993986;28;20053;-71
2021/01/21 08:46:43;;;;;;;3.20;2.07;;;;;;;7.24;59.90;98771.97;4993732;28;20045;-73
2021/01/21 08:49:10;;;;;;;3.37;1.90;;;;;;;7.33;60.20;98771.63;4958663;28;20121;-74
2021/01/21 08:51:44;;;;;;;3.17;2.10;;;;;;;7.49;59.24;98771.91;5007902;28;20038;-70
2021/01/21 08:54:18;;;;;;;3.42;2.20;;;;;;;7.51;59.88;98774.47;4990567;28;20066;-72
2021/01/21 08:57:10;;;;;;;2.05;1.60;;;;;;;7.47;60.47;98759.72;5006422;28;20104;-77
2021/01/21 08:59:41;;;;;;;3.90;1.90;;;;;;;7.57;59.87;98761.97;4987577;28;20529;-71
2021/01/21 09:02:09;;;;;;;4.60;1.70;;;;;;;7.67;59.46;98766.88;4999787;28;20071;-77
2021/01/21 09:04:38;;;;;;;3.83;1.80;;;;;;;7.75;59.85;98752.50;4982284;28;20180;-71
2021/01/21 09:07:06;;;;;;;2.60;1.67;;;;;;;7.79;59.97;98763.75;4990193;28;20042;-75
2021/01/21 09:09:36;;;;;;;2.93;1.53;;;;;;;7.92;59.42;98750.97;4970980;28;20042;-72
2021/01/21 09:12:16;;;;;;;4.53;2.05;;;;;;;8.19;58.61;98752.47;4987137;28;20034;-71
2021/01/21 09:15:00;;;;;;;3.60;1.58;;;;;;;8.48;58.00;98742.53;5004325;28;20030;-71
2021/01/21 09:17:28;;;;;;;2.78;1.50;;;;;;;8.80;56.98;98751.69;4985269;28;20033;-72
2021/01/21 09:19:54;;;;;;;2.83;1.50;;;;;;;8.89;55.42;98762.66;4992528;28;20069;-75
2021/01/21 09:22:27;;;;;;;1.70;1.50;;;;;;;8.91;56.39;98759.97;5006106;28;20203;-74
2021/01/21 09:25:01;;;;;;;2.70;1.50;;;;;;;9.13;55.35;98767.78;4993132;28;20045;-73
2021/01/21 09:27:30;;;;;;;3.20;1.33;;;;;;;10.07;52.81;98773.88;4994678;28;20042;-72
2021/01/21 09:30:02;;;;;;;2.88;1.80;;;;;;;11.18;49.29;98759.47;4992243;28;20041;-71
2021/01/21 09:32:33;;;;;;;1.60;1.20;;;;;;;11.91;48.03;98743.19;4995243;28;20030;-70
2021/01/21 09:35:08;;;;;;;2.78;1.55;;;;;;;12.85;46.79;98757.97;4992517;28;20052;-73
2021/01/21 09:37:36;;;;;;;2.40;1.75;;;;;;;13.04;45.12;98749.78;4999739;28;20579;-72
2021/01/21 09:40:07;;;;;;;5.20;2.03;;;;;;;12.01;46.56;98752.28;5001514;28;20574;-74
2021/01/21 09:42:34;;;;;;;2.22;1.30;;;;;;;11.28;48.04;98771.25;4992389;28;20041;-77
2021/01/21 09:45:00;;;;;;;2.65;1.40;;;;;;;11.52;47.65;98763.81;5002466;28;20092;-72
2021/01/21 09:47:27;;;;;;;3.50;1.50;;;;;;;11.91;47.89;98772.28;4986119;28;20042;-75
2021/01/21 09:49:53;;;;;;;1.90;1.30;;;;;;;13.26;45.10;98767.91;4972783;28;20058;-72
2021/01/21 09:52:19;;;;;;;3.00;1.42;;;;;;;13.58;43.85;98764.09;4996594;28;20500;-75
2021/01/21 09:54:45;;;;;;;2.58;1.63;;;;;;;12.62;45.09;98773.47;5008064;28;20049;-73
2021/01/21 09:57:12;;;;;;;3.35;1.92;;;;;;;12.04;46.40;98776.81;4988328;28;20056;-75
2021/01/21 09:59:38;;;;;;;3.05;1.70;;;;;;;11.48;47.82;98785.19;5010478;28;20046;-75
2021/01/21 10:02:04;;;;;;;2.53;1.58;;;;;;;11.53;47.62;98786.66;5009448;28;20854;-76
2021/01/21 10:04:32;;;;;;;2.38;1.50;;;;;;;11.77;47.46;98797.69;4988771;28;20517;-73
2021/01/21 10:06:58;;;;;;;3.25;1.60;;;;;;;11.67;47.44;98796.47;5009579;28;20057;-73
2021/01/21 10:09:25;;;;;;;4.32;1.40;;;;;;;11.81;47.42;98780.72;5010337;28;20097;-73
2021/01/21 10:11:52;;;;;;;4.25;1.95;;;;;;;11.88;47.20;98791.84;5004853;28;20556;-74
2021/01/21 10:14:19;;;;;;;2.90;2.00;;;;;;;11.99;47.79;98789.44;4975509;28;20078;-74
2021/01/21 10:16:45;;;;;;;12.75;2.85;;;;;;;12.47;47.24;98790.25;5010272;28;20085;-72
2021/01/21 10:19:12;;;;;;;2.42;1.58;;;;;;;12.07;46.45;98781.06;5003699;28;20045;-71
2021/01/21 10:21:38;;;;;;;5.03;1.90;;;;;;;11.71;47.44;98786.59;5009841;28;20050;-70
2021/01/21 10:24:05;;;;;;;2.00;1.40;;;;;;;11.26;48.10;98796.06;5010094;28;20495;-70
2021/01/21 10:26:31;;;;;;;2.67;1.50;;;;;;;11.12;49.47;98795.94;4986624;28;20049;-77
2021/01/21 10:28:57;;;;;;;2.53;1.60;;;;;;;11.71;47.47;98799.81;5003494;28;20030;-74
2021/01/21 10:31:24;;;;;;;2.70;1.80;;;;;;;12.02;47.68;98783.09;5008564;28;20042;-74
2021/01/21 10:33:50;;;;;;;2.22;1.48;;;;;;;11.61;47.43;98795.97;5008152;28;20041;-71
2021/01/21 10:36:16;;;;;;;3.17;1.70;;;;;;;11.33;48.03;98796.59;5011442;28;20419;-70
2021/01/21 10:38:42;;;;;;;2.10;1.50;;;;;;;11.20;49.57;98793.75;5005897;28;20034;-71
2021/01/21 10:41:09;;;;;;;3.53;2.13;;;;;;;11.35;48.70;98789.41;4997091;28;20046;-70
2021/01/21 10:43:36;;;;;;;2.33;1.50;;;;;;;11.88;47.79;98783.06;4993607;28;20045;-75
2021/01/21 10:46:03;;;;;;;2.10;1.20;;;;;;;12.62;46.10;98780.56;5023421;28;20030;-71
2021/01/21 10:48:29;;;;;;;2.22;1.40;;;;;;;13.50;43.73;98780.50;4987672;28;20034;-72
2021/01/21 10:50:56;;;;;;;2.88;1.60;;;;;;;13.45;43.76;98776.41;5010094;28;20455;-71
2021/01/21 10:53:22;;;;;;;2.53;1.30;;;;;;;14.22;42.38;98777.72;5009710;28;20042;-71
2021/01/21 10:55:48;;;;;;;2.28;1.63;;;;;;;14.05;42.87;98784.13;5009564;28;20446;-72
2021/01/21 10:58:15;;;;;;;1.77;1.15;;;;;;;13.12;43.88;98787.28;5011506;28;20029;-71
2021/01/21 11:00:41;;;;;;;1.75;1.30;;;;;;;12.45;46.24;98793.94;5013096;28;20038;-71
2021/01/21 11:03:08;;;;;;;2.28;1.30;;;;;;;12.11;48.26;98795.84;4993931;28;20030;-70
2021/01/21 11:05:34;;;;;;;1.52;1.30;;;;;;;11.87;48.95;98792.78;5008300;28;20092;-71
2021/01/21 11:08:00;;;;;;;2.17;1.20;;;;;;;11.65;49.18;98787.78;5008635;28;20788;-71
2021/01/21 11:10:27;;;;;;;2.30;1.35;;;;;;;11.44;49.68;98781.03;5008329;28;20034;-71
2021/01/21 11:12:53;;;;;;;1.75;1.17;;;;;;;11.31;50.30;98787.88;5008336;28;20050;-71
2021/01/21 11:15:19;;;;;;;2.00;1.42;;;;;;;11.10;51.20;98795.16;5008302;28;20042;-71
2021/01/21 11:17:46;;;;;;;1.15;1.05;;;;;;;11.02;51.62;98787.66;5007385;28;20116;-71
2021/01/21 11:20:14;;;;;;;2.25;1.40;;;;;;;11.08;51.79;98795.22;4996020;28;20044;-71
2021/01/21 11:22:40;;;;;;;1.98;1.30;;;;;;;11.05;51.17;98797.19;4985496;28;20096;-71
2021/01/21 11:25:08;;;;;;;1.95;1.00;;;;;;;10.98;52.14;98792.22;5006741;28;20634;-71
2021/01/21 11:27:54;;;;;;;3.13;1.27;;;;;;;10.99;51.09;98796.56;5006613;28;20037;-72
2021/01/21 11:30:22;;;;;;;3.55;2.45;;;;;;;10.99;51.93;98803.63;5007039;28;20070;-71
2021/01/21 11:32:48;;;;;;;2.28;1.60;;;;;;;11.04;51.54;98790.22;5006392;28;20484;-71
2021/01/21 11:35:14;;;;;;;1.55;1.20;;;;;;;10.97;52.27;98805.50;4988336;28;20615;-71
2021/01/21 11:37:40;;;;;;;2.97;2.40;;;;;;;10.93;52.14;98801.31;5006552;28;20151;-71
2021/01/21 11:40:07;;;;;;;5.07;2.15;;;;;;;10.87;52.57;98791.94;5009230;28;20072;-71
2021/01/21 11:42:33;;;;;;;1.75;1.20;;;;;;;10.90;52.87;98801.47;5007310;28;20045;-70
2021/01/21 11:45:05;;;;;;;1.77;1.20;;;;;;;10.96;52.13;98793.25;5006939;28;20034;-71
2021/01/21 11:47:39;;;;;;;1.77;1.38;;;;;;;10.92;52.18;98796.97;4990224;28;20467;-71